Time;durP1;ratioP1;P1;durP2;ratioP2;P2;SDS_P1;SDS_P2;PMS_P1;PMS_P2;Temp;Humidity;BMP_temperature;BMP_pressure;BME280_temperature;BME280_humidity;BME280_pressure;Samples;Min_cycle;Max_cycle;Signal;HPM_P1;HPM_P2
2021/07/24 00:01:00;;;;;;;1999.90;999.90;;;;;;;17.18;89.03;95677.81;5091916;28;20623;-72
2021/07/24 00:03:29;;;;;;;1999.90;999.90;;;;;;;17.06;90.11;95677.09;5091579;28;20265;-72
2021/07/24 00:05:56;;;;;;;1999.90;999.90;;;;;;;16.87;91.07;95672.41;5091578;28;20192;-73
2021/07/24 00:08:23;;;;;;;1999.90;999.90;;;;;;;16.76;91.39;95666.81;5091915;28;20195;-72
2021/07/24 00:10:50;;;;;;;1999.90;999.90;;;;;;;16.76;91.94;95673.91;5091399;28;20232;-73
2021/07/24 00:13:18;;;;;;;1999.90;999.90;;;;;;;16.82;91.79;95664.75;5091538;28;20196;-72
2021/07/24 00:15:45;;;;;;;1999.90;999.90;;;;;;;16.82;91.72;95664.75;5091588;28;20191;-72
2021/07/24 00:18:12;;;;;;;1999.90;999.90;;;;;;;16.73;92.00;95666.72;5091238;28;20203;-71
2021/07/24 00:20:41;;;;;;;1999.90;999.90;;;;;;;16.65;92.24;95662.31;5091486;28;20745;-71
2021/07/24 00:23:11;;;;;;;1999.90;999.90;;;;;;;16.61;93.15;95670.09;5091359;28;20204;-71
2021/07/24 00:25:40;;;;;;;1999.90;999.90;;;;;;;16.62;92.73;95665.59;5091054;28;20237;-71
2021/07/24 00:28:07;;;;;;;1999.90;999.90;;;;;;;16.64;93.01;95663.41;5089896;28;20200;-71
2021/07/24 00:30:37;;;;;;;1999.90;999.90;;;;;;;16.63;92.78;95661.88;5091343;28;20199;-71
2021/07/24 00:33:04;;;;;;;1999.90;999.90;;;;;;;16.58;93.19;95662.88;5075710;28;20191;-71
2021/07/24 00:35:31;;;;;;;1999.90;999.90;;;;;;;16.59;92.95;95661.00;5090889;28;20216;-71
2021/07/24 00:38:00;;;;;;;1999.90;999.90;;;;;;;16.16;91.92;95662.22;5090915;28;20192;-72
2021/07/24 00:40:30;;;;;;;1999.90;999.90;;;;;;;15.98;91.84;95660.84;5091312;28;20268;-72
2021/07/24 00:42:59;;;;;;;1999.90;999.90;;;;;;;15.83;91.63;95666.69;5090876;28;20776;-71
2021/07/24 00:45:30;;;;;;;1999.90;999.90;;;;;;;15.69;92.49;95663.59;5091131;28;20254;-71
2021/07/24 00:47:58;;;;;;;1999.90;999.90;;;;;;;15.67;93.06;95668.38;5090961;28;20188;-71
2021/07/24 00:50:26;;;;;;;1999.90;999.90;;;;;;;15.71;93.65;95661.41;5090888;28;20945;-71
2021/07/24 00:52:59;;;;;;;1999.90;999.90;;;;;;;15.76;94.39;95666.44;5090944;28;20191;-69
2021/07/24 00:55:28;;;;;;;1999.90;999.90;;;;;;;15.70;95.25;95657.22;5090348;28;20207;-70
2021/07/24 00:57:55;;;;;;;1999.90;999.90;;;;;;;15.78;95.36;95653.78;5090413;28;20192;-71
2021/07/24 01:00:22;;;;;;;1999.90;999.90;;;;;;;15.63;95.77;95664.88;5090701;28;20211;-70
2021/07/24 01:02:49;;;;;;;1999.90;999.90;;;;;;;15.46;97.02;95668.34;5090719;28;20199;-69
2021/07/24 01:05:16;;;;;;;1999.90;999.90;;;;;;;15.55;96.67;95665.69;5090581;28;20264;-70
2021/07/24 01:07:43;;;;;;;1999.90;999.90;;;;;;;15.62;96.16;95668.56;5090206;28;20206;-72
2021/07/24 01:10:12;;;;;;;1999.90;999.90;;;;;;;15.65;96.05;95671.31;5090663;28;20204;-72
2021/07/24 01:12:40;;;;;;;1999.90;999.90;;;;;;;15.61;95.51;95670.41;5090198;28;20211;-71
2021/07/24 01:15:09;;;;;;;1999.90;999.90;;;;;;;15.65;95.78;95666.06;5090217;28;20277;-71
2021/07/24 01:17:36;;;;;;;1999.90;999.90;;;;;;;15.54;95.86;95664.94;5090210;28;20211;-71
2021/07/24 01:20:04;;;;;;;1999.90;999.90;;;;;;;15.18;95.70;95678.53;5089653;28;20200;-71
2021/07/24 01:22:33;;;;;;;1999.90;999.90;;;;;;;15.22;94.91;95671.59;5085551;28;20211;-71
2021/07/24 01:25:00;;;;;;;1999.90;999.90;;;;;;;15.19;94.12;95682.72;5089783;28;20253;-70
2021/07/24 01:27:27;;;;;;;1999.90;999.90;;;;;;;15.19;96.91;95677.47;5090399;28;20292;-70
2021/07/24 01:29:54;;;;;;;1999.90;999.90;;;;;;;15.30;98.54;95665.50;5090209;28;20947;-70
2021/07/24 01:32:21;;;;;;;1999.90;999.90;;;;;;;15.27;99.05;95671.41;5090144;28;20207;-71
2021/07/24 01:34:48;;;;;;;1999.90;999.90;;;;;;;15.25;99.59;95676.19;5087566;28;20282;-69
2021/07/24 01:37:15;;;;;;;1999.90;999.90;;;;;;;15.31;99.57;95666.28;5090292;28;20196;-70
2021/07/24 01:39:44;;;;;;;1999.90;999.90;;;;;;;15.21;99.57;95664.81;5089980;28;20219;-71
2021/07/24 01:42:11;;;;;;;1999.90;999.90;;;;;;;15.21;99.33;95658.81;5089815;28;20684;-71
2021/07/24 01:44:38;;;;;;;1999.90;999.90;;;;;;;15.23;99.35;95660.03;5089936;28;20245;-71
2021/07/24 01:47:05;;;;;;;1999.90;999.90;;;;;;;15.14;100.00;95661.94;5089603;28;20196;-71
2021/07/24 01:55:14;;;;;;;1999.90;999.90;;;;;;;15.04;100.00;95662.31;5089670;28;20203;-74
2021/07/24 01:57:44;;;;;;;1999.90;999.90;;;;;;;14.98;100.00;95655.72;5089878;28;20615;-71
2021/07/24 02:00:13;;;;;;;1999.90;999.90;;;;;;;15.00;100.00;95659.53;5089692;28;20710;-74
2021/07/24 02:02:42;;;;;;;1999.90;999.90;;;;;;;14.99;100.00;95665.13;5068103;28;20204;-72
2021/07/24 02:05:15;;;;;;;1999.90;999.90;;;;;;;14.81;99.46;95668.88;5087505;28;20196;-72
2021/07/24 02:07:47;;;;;;;1999.90;999.90;;;;;;;14.70;99.14;95667.69;5089060;28;20227;-70
2021/07/24 02:10:16;;;;;;;1999.90;999.90;;;;;;;14.64;99.55;95665.25;5085985;28;20282;-70
2021/07/24 02:12:43;;;;;;;1999.90;999.90;;;;;;;14.70;99.83;95668.47;5085188;28;20257;-70
2021/07/24 02:15:11;;;;;;;1999.90;999.90;;;;;;;14.69;99.87;95666.19;5089040;28;20311;-70
2021/07/24 02:17:39;;;;;;;1999.90;999.90;;;;;;;14.70;100.00;95665.84;5089082;28;20258;-69
2021/07/24 02:20:08;;;;;;;1999.90;999.90;;;;;;;14.82;100.00;95665.97;5088801;28;20353;-69
2021/07/24 02:22:35;;;;;;;1999.90;999.90;;;;;;;14.95;100.00;95659.72;5079106;28;20246;-69
2021/07/24 02:25:02;;;;;;;1999.90;999.90;;;;;;;15.03;100.00;95666.78;5070218;28;20205;-69
2021/07/24 02:27:32;;;;;;;1999.90;999.90;;;;;;;14.91;100.00;95666.69;5084814;28;20195;-69
2021/07/24 02:29:59;;;;;;;1999.90;999.90;;;;;;;14.90;98.83;95664.38;5089187;28;20638;-70
2021/07/24 02:32:27;;;;;;;1999.90;999.90;;;;;;;14.77;98.19;95665.38;5089038;28;20961;-70
2021/07/24 02:34:54;;;;;;;1999.90;999.90;;;;;;;14.74;98.98;95664.16;5080501;28;20224;-70
2021/07/24 02:37:22;;;;;;;1999.90;999.90;;;;;;;14.79;99.24;95666.59;5078844;28;20663;-68
2021/07/24 02:39:49;;;;;;;1999.90;999.90;;;;;;;14.76;100.00;95667.22;5088807;28;20199;-70
2021/07/24 02:42:16;;;;;;;1999.90;999.90;;;;;;;14.70;100.00;95667.69;5088688;28;20210;-74
2021/07/24 02:44:44;;;;;;;1999.90;999.90;;;;;;;14.57;98.33;95672.84;5086228;28;20761;-73
2021/07/24 02:47:11;;;;;;;1999.90;999.90;;;;;;;14.40;99.21;95670.25;5076656;28;20208;-73
2021/07/24 02:49:39;;;;;;;1999.90;999.90;;;;;;;14.39;100.00;95673.22;5068590;28;20277;-73
2021/07/24 02:52:07;;;;;;;1999.90;999.90;;;;;;;14.40;100.00;95667.66;5072601;28;20203;-71
2021/07/24 02:54:34;;;;;;;1999.90;999.90;;;;;;;14.31;100.00;95672.13;5092765;28;20862;-71
2021/07/24 02:57:01;;;;;;;1999.90;999.90;;;;;;;14.34;100.00;95678.59;5092720;28;20206;-70
2021/07/24 02:59:28;;;;;;;1999.90;999.90;;;;;;;14.26;100.00;95674.91;5092675;28;20206;-70
2021/07/24 03:01:57;;;;;;;1999.90;999.90;;;;;;;14.08;100.00;95670.78;5087382;28;20204;-69
2021/07/24 03:04:24;;;;;;;1999.90;999.90;;;;;;;14.17;100.00;95674.16;5072283;28;20206;-71
2021/07/24 03:06:51;;;;;;;1999.90;999.90;;;;;;;14.11;100.00;95675.38;5072377;28;20245;-70
2021/07/24 03:09:18;;;;;;;1999.90;999.90;;;;;;;14.16;100.00;95677.84;5072338;28;20673;-71
2021/07/24 03:11:46;;;;;;;1999.90;999.90;;;;;;;14.17;100.00;95676.75;5076562;28;20204;-70
2021/07/24 03:14:13;;;;;;;1999.90;999.90;;;;;;;14.22;100.00;95679.22;5076818;28;20664;-71
2021/07/24 03:16:40;;;;;;;1999.90;999.90;;;;;;;14.19;100.00;95672.78;5092312;28;20200;-71
2021/07/24 03:19:09;;;;;;;1999.90;999.90;;;;;;;14.12;100.00;95684.78;5077627;28;20676;-71
2021/07/24 03:21:36;;;;;;;1999.90;999.90;;;;;;;14.00;100.00;95682.00;5072057;28;20196;-70
2021/07/24 03:24:03;;;;;;;1999.90;999.90;;;;;;;14.01;100.00;95668.66;5072224;28;20718;-69
2021/07/24 03:26:30;;;;;;;1999.90;999.90;;;;;;;14.01;100.00;95676.47;5070701;28;20236;-70
2021/07/24 03:28:57;;;;;;;1999.90;999.90;;;;;;;13.88;100.00;95681.88;5086143;28;20196;-69
2021/07/24 03:31:25;;;;;;;1999.90;999.90;;;;;;;14.01;100.00;95686.16;5085452;28;20207;-71
2021/07/24 03:33:52;;;;;;;1999.90;999.90;;;;;;;13.98;100.00;95689.41;5091800;28;20200;-71
2021/07/24 03:36:20;;;;;;;1999.90;999.90;;;;;;;14.00;100.00;95687.22;5090873;28;20227;-70
2021/07/24 03:38:48;;;;;;;1999.90;999.90;;;;;;;13.97;100.00;95693.09;5092087;28;20586;-71
2021/07/24 03:41:15;;;;;;;1999.90;999.90;;;;;;;14.06;100.00;95694.63;5089703;28;20203;-69
2021/07/24 03:43:43;;;;;;;1999.90;999.90;;;;;;;14.23;100.00;95696.44;5091168;28;20725;-70
2021/07/24 03:46:16;;;;;;;1999.90;999.90;;;;;;;14.41;99.90;95699.78;5090009;28;20200;-70
2021/07/24 03:48:44;;;;;;;1999.90;999.90;;;;;;;14.42;99.07;95699.50;5092100;28;20374;-71
2021/07/24 03:51:12;;;;;;;1999.90;999.90;;;;;;;14.49;98.81;95701.63;5091884;28;20200;-71
2021/07/24 03:53:41;;;;;;;1999.90;999.90;;;;;;;14.56;99.31;95700.06;5091727;28;20716;-69
2021/07/24 03:56:15;;;;;;;1999.90;999.90;;;;;;;14.59;99.33;95706.53;5091665;28;20269;-68
2021/07/24 03:58:42;;;;;;;1999.90;999.90;;;;;;;14.63;99.55;95704.81;5091857;28;20631;-69
2021/07/24 04:01:09;;;;;;;1999.90;999.90;;;;;;;14.71;99.55;95705.84;5091940;28;20199;-69
2021/07/24 04:03:36;;;;;;;1999.90;999.90;;;;;;;14.61;99.84;95714.81;5091850;28;20225;-72
2021/07/24 04:06:04;;;;;;;1999.90;999.90;;;;;;;14.72;99.74;95708.16;5091920;28;20192;-72
2021/07/24 04:08:32;;;;;;;1999.90;999.90;;;;;;;14.76;99.27;95718.75;5082254;28;20208;-71
2021/07/24 04:11:01;;;;;;;1999.90;999.90;;;;;;;14.83;98.59;95709.38;5071253;28;20215;-72
2021/07/24 04:13:28;;;;;;;1999.90;999.90;;;;;;;14.88;98.32;95721.50;5071634;28;20715;-70
2021/07/24 04:15:55;;;;;;;1999.90;999.90;;;;;;;14.87;98.14;95720.72;5071185;28;20708;-70
2021/07/24 04:18:25;;;;;;;1999.90;999.90;;;;;;;14.86;98.44;95723.66;5071560;28;20200;-70
2021/07/24 04:20:52;;;;;;;1999.90;999.90;;;;;;;14.95;98.01;95727.00;5071021;28;20287;-71
2021/07/24 04:23:19;;;;;;;1999.90;999.90;;;;;;;15.00;97.84;95732.81;5071391;28;20243;-71
2021/07/24 04:25:46;;;;;;;1999.90;999.90;;;;;;;14.97;98.47;95724.84;5070780;28;20228;-71
2021/07/24 04:28:14;;;;;;;1999.90;999.90;;;;;;;15.18;98.42;95732.75;5080008;28;20187;-72
2021/07/24 04:30:41;;;;;;;1999.90;999.90;;;;;;;15.39;97.33;95741.44;5091536;28;20300;-71
2021/07/24 04:33:09;;;;;;;1999.90;999.90;;;;;;;15.53;96.96;95738.59;5091073;28;20215;-72
2021/07/24 04:35:36;;;;;;;1999.90;999.90;;;;;;;15.76;97.11;95734.56;5090998;28;20223;-70
2021/07/24 04:38:03;;;;;;;1999.90;999.90;;;;;;;16.18;96.14;95730.06;5091427;28;20253;-70
2021/07/24 04:40:30;;;;;;;1999.90;999.90;;;;;;;16.61;93.47;95733.06;5091345;28;20192;-70
2021/07/24 04:42:57;;;;;;;1999.90;999.90;;;;;;;17.07;91.79;95729.28;5091082;28;20203;-70
2021/07/24 04:45:25;;;;;;;1999.90;999.90;;;;;;;17.49;90.95;95729.78;5091101;28;20200;-69
2021/07/24 04:47:52;;;;;;;1999.90;999.90;;;;;;;17.65;90.44;95729.91;5091106;28;20253;-70
2021/07/24 04:50:20;;;;;;;1999.90;999.90;;;;;;;17.82;89.54;95724.41;5091186;28;20192;-69
2021/07/24 04:52:47;;;;;;;1999.90;999.90;;;;;;;17.92;89.75;95731.81;5090676;28;20253;-69
2021/07/24 04:55:14;;;;;;;1999.90;999.90;;;;;;;18.18;89.25;95728.00;5090749;28;20220;-70
2021/07/24 04:57:42;;;;;;;1999.90;999.90;;;;;;;18.48;87.23;95732.53;5090615;28;20206;-70
2021/07/24 05:00:11;;;;;;;1999.90;999.90;;;;;;;18.56;87.55;95725.63;5090783;28;20663;-68
2021/07/24 05:02:40;;;;;;;1999.90;999.90;;;;;;;18.72;88.09;95730.94;5090587;28;20203;-70
2021/07/24 05:05:08;;;;;;;1999.90;999.90;;;;;;;18.70;88.14;95733.88;5090175;28;20196;-69
2021/07/24 05:07:35;;;;;;;1999.90;999.90;;;;;;;18.67;88.76;95729.31;5090762;28;20668;-69
2021/07/24 05:10:08;;;;;;;1999.90;999.90;;;;;;;18.72;89.36;95734.31;5090248;28;20249;-70
2021/07/24 05:12:35;;;;;;;1999.90;999.90;;;;;;;18.90;87.65;95732.09;5090537;28;20274;-70
2021/07/24 05:15:02;;;;;;;1999.90;999.90;;;;;;;18.93;88.02;95726.91;5089665;28;20220;-70
2021/07/24 05:17:29;;;;;;;1999.90;999.90;;;;;;;19.08;87.87;95733.28;5090657;28;20199;-70
2021/07/24 05:19:57;;;;;;;1999.90;999.90;;;;;;;18.99;88.86;95729.28;5090353;28;20196;-69
2021/07/24 05:22:24;;;;;;;1999.90;999.90;;;;;;;19.03;89.53;95732.81;5090409;28;20688;-69
2021/07/24 05:24:51;;;;;;;1999.90;999.90;;;;;;;19.37;87.40;95733.94;5090090;28;20567;-69
2021/07/24 05:27:18;;;;;;;1999.90;999.90;;;;;;;19.27;86.71;95733.38;5089272;28;20567;-69
2021/07/24 05:29:46;;;;;;;1999.90;999.90;;;;;;;19.65;85.17;95731.94;5069712;28;20204;-70
2021/07/24 05:32:13;;;;;;;1999.90;999.90;;;;;;;19.90;85.12;95735.09;5070009;28;20224;-70
2021/07/24 05:34:40;;;;;;;1999.90;999.90;;;;;;;20.06;85.01;95727.88;5069935;28;20223;-71
2021/07/24 05:37:08;;;;;;;1999.90;999.90;;;;;;;20.19;83.66;95730.03;5069732;28;20232;-70
2021/07/24 05:39:35;;;;;;;1999.90;999.90;;;;;;;20.08;84.24;95726.41;5069553;28;20209;-70
2021/07/24 05:42:02;;;;;;;1999.90;999.90;;;;;;;20.50;83.33;95726.47;5069846;28;20651;-70
2021/07/24 05:44:29;;;;;;;1999.90;999.90;;;;;;;20.73;82.43;95728.34;5069683;28;20262;-70
2021/07/24 05:46:58;;;;;;;1999.90;999.90;;;;;;;20.74;81.31;95730.66;5069316;28;20193;-70
2021/07/24 05:49:25;;;;;;;1999.90;999.90;;;;;;;20.83;81.66;95730.41;5069339;28;20291;-70
2021/07/24 05:51:52;;;;;;;1999.90;999.90;;;;;;;21.04;79.44;95728.88;5070326;28;20208;-70
2021/07/24 05:54:22;;;;;;;1999.90;999.90;;;;;;;21.16;76.75;95725.31;5089865;28;20580;-71
2021/07/24 05:56:50;;;;;;;1999.90;999.90;;;;;;;21.29;77.30;95729.28;5089409;28;20247;-71
2021/07/24 05:59:17;;;;;;;1999.90;999.90;;;;;;;21.28;74.97;95730.41;5089443;28;20195;-70
2021/07/24 06:01:44;;;;;;;1999.90;999.90;;;;;;;21.41;74.42;95733.63;5089643;28;20203;-70
2021/07/24 06:04:11;;;;;;;1999.90;999.90;;;;;;;21.65;75.46;95735.84;5089403;28;20196;-70
2021/07/24 06:06:38;;;;;;;1999.90;999.90;;;;;;;21.75;74.10;95732.56;5089382;28;20191;-70
2021/07/24 06:09:05;;;;;;;1999.90;999.90;;;;;;;21.71;72.82;95733.66;5089696;28;20256;-70
2021/07/24 06:11:35;;;;;;;1999.90;999.90;;;;;;;21.76;74.07;95733.34;5089443;28;20203;-70
2021/07/24 06:14:02;;;;;;;1999.90;999.90;;;;;;;22.10;71.48;95734.91;5089352;28;20664;-71
2021/07/24 06:16:29;;;;;;;1999.90;999.90;;;;;;;22.30;68.94;95738.16;5089122;28;20253;-71
2021/07/24 06:18:56;;;;;;;1999.90;999.90;;;;;;;22.27;69.13;95736.22;5089087;28;20200;-71
2021/07/24 06:21:23;;;;;;;1999.90;999.90;;;;;;;22.21;70.10;95737.69;5089077;28;20204;-70
2021/07/24 06:23:50;;;;;;;1999.90;999.90;;;;;;;22.30;69.84;95741.56;5089012;28;20200;-70
2021/07/24 06:26:17;;;;;;;1999.90;999.90;;;;;;;22.51;68.38;95738.41;5087920;28;20239;-70
2021/07/24 06:28:46;;;;;;;1999.90;999.90;;;;;;;22.78;68.78;95738.28;5088906;28;20199;-71
2021/07/24 06:31:13;;;;;;;1999.90;999.90;;;;;;;22.98;68.04;95735.06;5089131;28;20196;-70
2021/07/24 06:33:40;;;;;;;1999.90;999.90;;;;;;;22.90;68.62;95738.78;5089157;28;20199;-71
2021/07/24 06:36:07;;;;;;;1999.90;999.90;;;;;;;22.86;68.56;95734.59;5089016;28;20707;-71
2021/07/24 06:38:34;;;;;;;1999.90;999.90;;;;;;;23.00;67.07;95737.34;5088972;28;20192;-71
2021/07/24 06:41:05;;;;;;;1999.90;999.90;;;;;;;23.18;65.90;95735.59;5088433;28;20220;-71
2021/07/24 06:43:32;;;;;;;1999.90;999.90;;;;;;;23.33;64.82;95734.56;5089307;28;20219;-72
2021/07/24 06:46:09;;;;;;;1999.90;999.90;;;;;;;23.63;63.63;95731.72;5088708;28;20206;-71
2021/07/24 06:48:36;;;;;;;1999.90;999.90;;;;;;;23.68;61.38;95734.03;5089249;28;20198;-71
2021/07/24 06:51:06;;;;;;;1999.90;999.90;;;;;;;23.81;62.38;95731.84;5088782;28;20668;-70
2021/07/24 06:53:33;;;;;;;1999.90;999.90;;;;;;;23.68;63.04;95726.06;5088679;28;20710;-69
2021/07/24 06:56:00;;;;;;;1999.90;999.90;;;;;;;23.61;62.69;95723.41;5088747;28;20220;-71
2021/07/24 06:58:27;;;;;;;1999.90;999.90;;;;;;;23.72;64.28;95726.09;5088758;28;20695;-73
2021/07/24 07:00:54;;;;;;;1999.90;999.90;;;;;;;23.55;63.85;95725.63;5088971;28;20238;-71
2021/07/24 07:03:23;;;;;;;1999.90;999.90;;;;;;;24.05;59.84;95725.88;5089038;28;20252;-70
2021/07/24 07:05:52;;;;;;;1999.90;999.90;;;;;;;24.38;60.52;95722.19;5088978;28;20188;-71
2021/07/24 07:08:19;;;;;;;1999.90;999.90;;;;;;;24.53;60.73;95718.44;5089120;28;20195;-70
2021/07/24 07:10:48;;;;;;;1999.90;999.90;;;;;;;24.78;58.78;95718.47;5088591;28;20261;-70
2021/07/24 07:13:15;;;;;;;1999.90;999.90;;;;;;;24.47;60.61;95714.63;5088937;28;20200;-71
2021/07/24 07:15:42;;;;;;;1999.90;999.90;;;;;;;24.57;59.97;95716.53;5088601;28;20219;-69
2021/07/24 07:18:09;;;;;;;1999.90;999.90;;;;;;;24.36;60.20;95719.16;5088764;28;20191;-71
2021/07/24 07:20:38;;;;;;;1999.90;999.90;;;;;;;24.69;58.69;95721.50;5088603;28;20200;-72
2021/07/24 07:23:05;;;;;;;1999.90;999.90;;;;;;;24.89;56.79;95723.81;5088507;28;20196;-70
2021/07/24 07:25:32;;;;;;;1999.90;999.90;;;;;;;24.99;57.19;95712.44;5088407;28;20627;-69
2021/07/24 07:27:59;;;;;;;1999.90;999.90;;;;;;;24.99;56.69;95712.44;5088610;28;20192;-71
2021/07/24 07:30:26;;;;;;;1999.90;999.90;;;;;;;25.35;55.53;95710.50;5088774;28;20253;-71
2021/07/24 07:32:53;;;;;;;1999.90;999.90;;;;;;;25.46;55.36;95709.31;5088929;28;20199;-70
2021/07/24 07:35:20;;;;;;;1999.90;999.90;;;;;;;25.51;53.25;95710.84;5088830;28;20196;-70
2021/07/24 07:37:51;;;;;;;1999.90;999.90;;;;;;;25.81;52.55;95715.72;5089994;28;20203;-70
2021/07/24 07:40:18;;;;;;;1999.90;999.90;;;;;;;25.92;52.29;95713.78;5092483;28;20274;-70
2021/07/24 07:42:45;;;;;;;1999.90;999.90;;;;;;;25.90;51.93;95713.44;5092262;28;20279;-70
2021/07/24 07:45:13;;;;;;;1999.90;999.90;;;;;;;25.69;53.94;95708.94;5092077;28;20200;-71
2021/07/24 07:47:40;;;;;;;1999.90;999.90;;;;;;;25.98;52.02;95704.25;5092309;28;20196;-70
2021/07/24 07:50:08;;;;;;;1999.90;999.90;;;;;;;25.88;51.99;95702.41;5091901;28;20203;-71
2021/07/24 07:52:35;;;;;;;1999.90;999.90;;;;;;;26.03;49.69;95709.94;5086333;28;20192;-69
2021/07/24 07:55:05;;;;;;;1999.90;999.90;;;;;;;26.08;51.83;95704.22;5071645;28;20231;-69
2021/07/24 07:57:32;;;;;;;1999.90;999.90;;;;;;;26.04;54.05;95703.47;5071820;28;20226;-69
2021/07/24 07:59:59;;;;;;;1999.90;999.90;;;;;;;26.27;53.66;95707.56;5071396;28;20742;-70
2021/07/24 08:02:26;;;;;;;1999.90;999.90;;;;;;;26.16;51.51;95696.94;5071332;28;20197;-70
2021/07/24 08:04:54;;;;;;;1999.90;999.90;;;;;;;25.67;51.08;95698.66;5071360;28;20201;-70
2021/07/24 08:07:21;;;;;;;1999.90;999.90;;;;;;;25.80;50.25;95695.59;5071614;28;20258;-70
2021/07/24 08:09:48;;;;;;;1999.90;999.90;;;;;;;26.23;50.67;95702.25;5071735;28;20265;-71
2021/07/24 08:12:17;;;;;;;1999.90;999.90;;;;;;;26.27;51.39;95708.34;5071243;28;20207;-71
2021/07/24 08:14:44;;;;;;;1999.90;999.90;;;;;;;26.60;49.99;95698.25;5071346;28;20885;-70
2021/07/24 08:17:11;;;;;;;1999.90;999.90;;;;;;;26.86;49.52;95695.78;5071486;28;20602;-71
2021/07/24 08:19:38;;;;;;;1999.90;999.90;;;;;;;26.86;48.38;95695.00;5071055;28;20231;-70
2021/07/24 08:22:05;;;;;;;1999.90;999.90;;;;;;;26.80;49.71;95701.91;5071328;28;20802;-70
2021/07/24 08:24:32;;;;;;;1999.90;999.90;;;;;;;27.09;51.35;95697.13;5071092;28;20745;-72
2021/07/24 08:27:00;;;;;;;1999.90;999.90;;;;;;;27.18;49.55;95700.09;5070916;28;20224;-71
2021/07/24 08:29:28;;;;;;;1999.90;999.90;;;;;;;27.06;50.43;95698.66;5090136;28;20199;-71
2021/07/24 08:31:56;;;;;;;1999.90;999.90;;;;;;;27.27;46.38;95693.16;5091325;28;20195;-72
2021/07/24 08:34:23;;;;;;;1999.90;999.90;;;;;;;27.08;48.68;95691.03;5091437;28;20249;-71
2021/07/24 08:36:50;;;;;;;1999.90;999.90;;;;;;;27.47;44.40;95696.00;5090880;28;20255;-70
2021/07/24 08:39:18;;;;;;;1999.90;999.90;;;;;;;27.51;45.04;95696.75;5090890;28;20500;-71
2021/07/24 08:41:45;;;;;;;1999.90;999.90;;;;;;;27.73;43.46;95699.97;5090368;28;20446;-70
2021/07/24 08:44:12;;;;;;;1999.90;999.90;;;;;;;28.07;44.32;95698.00;5091114;28;20192;-71
2021/07/24 08:46:41;;;;;;;1999.90;999.90;;;;;;;28.28;42.74;95704.28;5090810;28;20207;-72
2021/07/24 08:49:08;;;;;;;1999.90;999.90;;;;;;;28.17;41.97;95699.06;5090156;28;20203;-70
2021/07/24 08:51:37;;;;;;;1999.90;999.90;;;;;;;28.17;40.90;95689.13;5090840;28;20198;-72
2021/07/24 08:54:06;;;;;;;1999.90;999.90;;;;;;;28.08;41.70;95685.41;5090713;28;20285;-71
2021/07/24 08:56:41;;;;;;;1999.90;999.90;;;;;;;28.32;43.70;95688.94;5090797;28;20231;-72
2021/07/24 08:59:11;;;;;;;1999.90;999.90;;;;;;;28.72;44.56;95690.69;5090611;28;20241;-71
2021/07/24 09:01:47;;;;;;;1999.90;999.90;;;;;;;28.66;42.21;95689.59;5090497;28;20743;-70
2021/07/24 09:04:14;;;;;;;1999.90;999.90;;;;;;;28.22;43.56;95696.69;5090522;28;20194;-70
2021/07/24 09:06:42;;;;;;;1999.90;999.90;;;;;;;28.16;44.04;95695.63;5090355;28;20196;-70
2021/07/24 09:09:10;;;;;;;1999.90;999.90;;;;;;;28.25;44.47;95695.13;5090373;28;20196;-71
2021/07/24 09:11:38;;;;;;;1999.90;999.90;;;;;;;28.68;44.10;95703.31;5090520;28;20290;-71
2021/07/24 09:14:06;;;;;;;1999.90;999.90;;;;;;;28.60;41.71;95704.56;5090189;28;20203;-71
2021/07/24 09:16:34;;;;;;;1999.90;999.90;;;;;;;28.58;42.97;95704.25;5090094;28;20223;-71
2021/07/24 09:19:02;;;;;;;1999.90;999.90;;;;;;;28.27;41.84;95708.09;5090253;28;20201;-71
2021/07/24 09:21:31;;;;;;;1999.90;999.90;;;;;;;27.68;44.75;95716.41;5090388;28;20191;-72
2021/07/24 09:24:19;;;;;;;1999.90;999.90;;;;;;;27.77;46.63;95716.69;5090097;28;20214;-71
2021/07/24 09:26:46;;;;;;;1999.90;999.90;;;;;;;27.75;47.66;95711.75;5089979;28;20232;-72
2021/07/24 09:29:14;;;;;;;1999.90;999.90;;;;;;;27.67;45.82;95713.00;5090289;28;20195;-71
2021/07/24 09:31:42;;;;;;;1999.90;999.90;;;;;;;27.46;48.91;95707.06;5089796;28;20283;-72
2021/07/24 09:34:11;;;;;;;1999.90;999.90;;;;;;;27.87;46.76;95715.06;5089808;28;20195;-71
2021/07/24 09:36:39;;;;;;;1999.90;999.90;;;;;;;27.91;46.75;95708.50;5089695;28;20240;-71
2021/07/24 09:39:14;;;;;;;1999.90;999.90;;;;;;;27.76;47.38;95713.25;5090102;28;20204;-71
2021/07/24 09:41:42;;;;;;;1999.90;999.90;;;;;;;27.56;45.26;95706.22;5089919;28;20204;-72
2021/07/24 09:44:09;;;;;;;1999.90;999.90;;;;;;;27.47;45.00;95703.25;5089627;28;20218;-71
2021/07/24 09:46:37;;;;;;;1999.90;999.90;;;;;;;27.33;45.85;95696.16;5089962;28;20667;-70
2021/07/24 09:49:34;;;;;;;1999.90;999.90;;;;;;;26.93;45.00;95693.06;5089718;28;20192;-70
2021/07/24 09:52:10;;;;;;;1999.90;999.90;;;;;;;26.98;43.97;95699.88;5088794;28;20184;-70
2021/07/24 09:54:38;;;;;;;1999.90;999.90;;;;;;;27.13;43.70;95703.97;5069261;28;20237;-70
2021/07/24 09:57:05;;;;;;;1999.90;999.90;;;;;;;26.83;46.67;95709.13;5069308;28;20311;-70
2021/07/24 09:59:34;;;;;;;1999.90;999.90;;;;;;;26.83;45.57;95711.78;5069323;28;20196;-71
2021/07/24 10:02:02;;;;;;;1999.90;999.90;;;;;;;26.57;46.38;95715.78;5068991;28;20200;-71
2021/07/24 10:04:32;;;;;;;1999.90;999.90;;;;;;;26.41;46.99;95723.47;5069060;28;20201;-70
2021/07/24 10:07:01;;;;;;;1999.90;999.90;;;;;;;26.24;51.18;95729.69;5069300;28;20195;-70
2021/07/24 10:09:29;;;;;;;1999.90;999.90;;;;;;;26.09;56.82;95735.03;5069363;28;20637;-71
2021/07/24 10:11:58;;;;;;;1999.90;999.90;;;;;;;25.56;60.12;95740.50;5069369;28;20228;-71
2021/07/24 10:14:26;;;;;;;1999.90;999.90;;;;;;;25.41;62.82;95741.66;5068959;28;20207;-72
2021/07/24 10:16:54;;;;;;;1999.90;999.90;;;;;;;24.94;63.35;95752.69;5068960;28;20623;-67
2021/07/24 10:19:23;;;;;;;1999.90;999.90;;;;;;;23.26;70.29;95750.44;5068996;28;20196;-70
2021/07/24 10:21:54;;;;;;;1999.90;999.90;;;;;;;21.88;76.44;95770.16;5068984;28;20192;-70
2021/07/24 10:24:22;;;;;;;1999.90;999.90;;;;;;;21.15;73.64;95763.44;5069513;28;20258;-71
2021/07/24 10:26:52;;;;;;;1999.90;999.90;;;;;;;20.99;69.75;95752.97;5069011;28;20232;-72
2021/07/24 10:29:27;;;;;;;1999.90;999.90;;;;;;;20.63;68.36;95741.03;5087100;28;20211;-72
2021/07/24 10:32:01;;;;;;;1999.90;999.90;;;;;;;19.92;78.70;95738.94;5089102;28;20240;-71
2021/07/24 10:34:30;;;;;;;1999.90;999.90;;;;;;;20.17;83.89;95734.13;5088969;28;20195;-72
2021/07/24 10:36:59;;;;;;;1999.90;999.90;;;;;;;20.47;86.31;95732.44;5089120;28;20231;-71
2021/07/24 10:39:26;;;;;;;1999.90;999.90;;;;;;;20.69;89.23;95733.59;5089155;28;20667;-72
2021/07/24 10:42:08;;;;;;;1999.90;999.90;;;;;;;20.88;88.02;95748.59;5089108;28;20204;-71
2021/07/24 10:44:38;;;;;;;1999.90;999.90;;;;;;;21.35;85.56;95738.44;5088931;28;20633;-72
2021/07/24 10:47:20;;;;;;;1999.90;999.90;;;;;;;21.86;82.67;95740.66;5088864;28;20222;-71
2021/07/24 10:50:11;;;;;;;1999.90;999.90;;;;;;;22.06;78.22;95746.59;5088887;28;20195;-70
2021/07/24 10:53:11;;;;;;;1999.90;999.90;;;;;;;22.25;77.30;95741.91;5088723;28;20191;-72
2021/07/24 10:55:50;;;;;;;1999.90;999.90;;;;;;;22.20;81.94;95744.88;5088789;28;20187;-71
2021/07/24 10:58:18;;;;;;;1999.90;999.90;;;;;;;22.42;82.85;95734.50;5088997;28;20315;-74
2021/07/24 11:00:53;;;;;;;1999.90;999.90;;;;;;;22.44;83.51;95726.94;5089090;28;20196;-72
2021/07/24 11:03:43;;;;;;;1999.90;999.90;;;;;;;22.65;83.68;95717.34;5088723;28;20240;-72